Time;durP1;ratioP1;P1;durP2;ratioP2;P2;SDS_P1;SDS_P2;PMS_P1;PMS_P2;Temp;Humidity;BMP_temperature;BMP_pressure;BME280_temperature;BME280_humidity;BME280_pressure;Samples;Min_cycle;Max_cycle;Signal;HPM_P1;HPM_P2
2021/03/03 00:03:43;;;;;;;28.58;12.68;;;9.70;56.50;;;;;;10056270;28;20376;-64
2021/03/03 00:08:33;;;;;;;20.63;11.60;;;9.60;56.70;;;;;;10056956;28;20073;-62
2021/03/03 00:13:24;;;;;;;25.55;11.52;;;9.50;57.00;;;;;;10055458;28;20128;-63
2021/03/03 00:18:15;;;;;;;24.35;12.35;;;9.50;57.20;;;;;;10056570;28;20072;-65
2021/03/03 00:23:05;;;;;;;22.67;12.48;;;9.40;57.30;;;;;;10056106;28;20111;-64
2021/03/03 00:27:56;;;;;;;21.73;11.45;;;9.40;57.40;;;;;;10054828;28;20033;-64
2021/03/03 00:32:47;;;;;;;23.13;10.63;;;9.20;57.70;;;;;;10054139;28;20044;-62
2021/03/03 00:37:38;;;;;;;20.40;10.50;;;9.30;57.80;;;;;;10055524;28;20246;-61
2021/03/03 00:42:28;;;;;;;24.60;11.75;;;9.30;57.80;;;;;;10054770;28;20033;-61
2021/03/03 00:47:19;;;;;;;23.60;12.07;;;9.30;57.70;;;;;;10055469;28;20458;-61
2021/03/03 00:52:10;;;;;;;20.75;11.18;;;9.20;57.70;;;;;;10053895;28;20119;-62
2021/03/03 00:57:00;;;;;;;21.90;12.35;;;9.20;57.90;;;;;;10055320;28;20426;-61
2021/03/03 01:01:51;;;;;;;24.20;11.82;;;9.20;58.00;;;;;;10052582;28;20570;-61
2021/03/03 01:06:41;;;;;;;29.95;12.85;;;9.20;58.20;;;;;;10051507;28;20076;-63
2021/03/03 01:11:32;;;;;;;23.40;12.23;;;9.00;58.40;;;;;;10054402;28;20045;-63
2021/03/03 01:16:23;;;;;;;19.48;10.73;;;8.90;59.00;;;;;;10053386;28;20115;-61
2021/03/03 01:21:13;;;;;;;18.02;10.35;;;8.90;59.00;;;;;;10053787;28;20039;-63
2021/03/03 01:26:04;;;;;;;22.17;12.20;;;8.80;59.50;;;;;;10054106;28;20040;-62
2021/03/03 01:30:55;;;;;;;19.38;11.20;;;8.80;59.40;;;;;;10049985;28;20047;-62
2021/03/03 01:35:46;;;;;;;25.60;12.05;;;8.80;59.60;;;;;;10053809;28;20071;-62
2021/03/03 01:40:37;;;;;;;21.30;10.75;;;8.70;59.70;;;;;;10052548;28;20627;-63
2021/03/03 01:45:27;;;;;;;23.02;12.15;;;8.70;59.70;;;;;;10050884;28;20043;-62
2021/03/03 01:50:18;;;;;;;25.35;11.63;;;8.80;59.60;;;;;;10052956;28;20084;-63
2021/03/03 01:55:09;;;;;;;17.42;10.98;;;8.80;59.70;;;;;;10051628;28;20055;-62
2021/03/03 02:00:00;;;;;;;21.42;12.18;;;8.80;59.70;;;;;;10050920;28;20045;-63
2021/03/03 02:04:52;;;;;;;19.63;10.52;;;8.80;59.70;;;;;;10050342;28;20443;-62
2021/03/03 02:09:48;;;;;;;23.55;11.88;;;8.90;59.80;;;;;;10051989;28;21774;-63
2021/03/03 02:14:41;;;;;;;;;;;8.90;59.60;;;;;;10050213;28;20103;-65
2021/03/03 02:19:37;;;;;;;18.40;10.82;;;8.80;60.10;;;;;;10051195;28;20398;-63
2021/03/03 02:24:31;;;;;;;;;;;8.80;59.80;;;;;;10058759;28;20028;-62
2021/03/03 02:29:25;;;;;;;18.65;9.65;;;8.70;60.00;;;;;;10058551;28;19924;-63
2021/03/03 02:34:18;;;;;;;17.45;9.65;;;8.60;60.00;;;;;;10057131;28;20028;-63
2021/03/03 02:39:10;;;;;;;14.63;8.70;;;8.70;60.10;;;;;;10060610;28;20603;-63
2021/03/03 02:44:03;;;;;;;17.73;10.23;;;8.60;60.30;;;;;;10058680;28;20037;-63
2021/03/03 02:48:54;;;;;;;19.20;10.75;;;8.70;60.30;;;;;;10060117;28;20041;-63
2021/03/03 02:53:44;;;;;;;19.50;10.68;;;8.50;60.20;;;;;;10058566;28;20094;-62
2021/03/03 02:58:36;;;;;;;16.55;9.73;;;8.50;60.50;;;;;;10055225;28;20570;-62
2021/03/03 03:04:00;;;;;;;23.50;10.50;;;8.60;60.60;;;;;;10058573;28;20039;-61
2021/03/03 03:08:53;;;;;;;24.42;9.98;;;8.60;60.60;;;;;;10057820;28;20112;-64
2021/03/03 03:13:46;;;;;;;19.23;9.90;;;8.60;60.70;;;;;;10058974;28;20065;-61
2021/03/03 03:18:43;;;;;;;21.27;10.60;;;8.50;60.90;;;;;;10072565;28;20136;-62
2021/03/03 03:23:35;;;;;;;25.50;12.20;;;8.30;61.20;;;;;;10057207;28;20237;-62
2021/03/03 03:28:26;;;;;;;21.25;9.98;;;8.30;61.30;;;;;;10058220;28;20187;-62
2021/03/03 03:33:18;;;;;;;19.35;9.95;;;8.50;61.20;;;;;;10052692;28;20164;-62
2021/03/03 03:38:09;;;;;;;19.35;11.48;;;8.40;61.60;;;;;;10057890;28;20128;-61
2021/03/03 03:43:01;;;;;;;22.83;11.05;;;8.30;61.40;;;;;;10057531;28;20133;-62
2021/03/03 03:47:52;;;;;;;22.95;10.50;;;8.40;61.60;;;;;;10055543;28;20269;-63
2021/03/03 03:52:43;;;;;;;21.35;10.32;;;8.40;61.50;;;;;;10055608;28;20335;-62
2021/03/03 03:57:48;;;;;;;15.32;10.48;;;8.30;61.70;;;;;;10055941;28;20094;-63
2021/03/03 04:02:38;;;;;;;20.73;9.68;;;8.30;61.90;;;;;;10056404;28;20051;-63
2021/03/03 04:07:29;;;;;;;18.15;10.13;;;8.30;61.60;;;;;;10054439;28;20029;-62
2021/03/03 04:12:19;;;;;;;19.33;10.50;;;8.40;61.70;;;;;;10055168;28;20033;-64
2021/03/03 04:17:10;;;;;;;21.58;10.43;;;8.40;61.80;;;;;;10056012;28;20049;-62
2021/03/03 04:22:01;;;;;;;17.17;9.80;;;8.40;61.80;;;;;;10053328;28;20069;-63
2021/03/03 04:26:51;;;;;;;22.00;11.73;;;8.40;62.00;;;;;;10055553;28;20033;-62
2021/03/03 04:31:42;;;;;;;21.75;10.40;;;8.40;62.00;;;;;;10053796;28;20040;-63
2021/03/03 04:36:32;;;;;;;19.58;11.05;;;8.20;62.40;;;;;;10055325;28;20166;-62
2021/03/03 04:41:23;;;;;;;20.70;11.48;;;8.20;62.40;;;;;;10054602;28;20032;-62
2021/03/03 04:46:14;;;;;;;19.33;10.43;;;8.00;62.70;;;;;;10053819;28;20037;-63
2021/03/03 04:51:04;;;;;;;19.05;9.73;;;8.00;63.10;;;;;;10052888;28;20084;-63
2021/03/03 04:55:55;;;;;;;15.23;8.52;;;8.10;63.00;;;;;;10054835;28;20485;-62
2021/03/03 05:00:46;;;;;;;21.20;10.40;;;8.10;63.00;;;;;;10053452;28;20558;-62
2021/03/03 05:05:36;;;;;;;19.80;10.30;;;8.00;63.20;;;;;;10055023;28;20037;-62
2021/03/03 05:10:27;;;;;;;19.25;9.73;;;8.00;63.20;;;;;;10053173;28;20044;-62
2021/03/03 05:15:18;;;;;;;18.35;10.57;;;8.00;63.10;;;;;;10068842;28;20376;-62
2021/03/03 05:20:10;;;;;;;21.40;9.77;;;7.90;63.50;;;;;;10053299;28;20172;-61
2021/03/03 05:25:01;;;;;;;20.25;10.32;;;8.00;63.50;;;;;;10052332;28;20564;-62
2021/03/03 05:29:51;;;;;;;16.65;10.00;;;7.90;63.60;;;;;;10052511;28;20045;-62
2021/03/03 05:34:42;;;;;;;18.70;10.73;;;7.90;64.00;;;;;;10053259;28;20036;-64
2021/03/03 05:39:33;;;;;;;19.77;10.82;;;7.80;64.10;;;;;;10052959;28;20045;-62
2021/03/03 05:44:24;;;;;;;16.83;10.27;;;7.80;64.30;;;;;;10053073;28;20041;-64
2021/03/03 05:49:16;;;;;;;18.02;9.32;;;7.80;64.70;;;;;;10051816;28;20399;-64
2021/03/03 05:54:08;;;;;;;16.27;9.63;;;7.80;64.40;;;;;;10053473;28;20147;-69
2021/03/03 05:58:59;;;;;;;17.33;8.93;;;7.90;64.40;;;;;;10052114;28;20025;-63
2021/03/03 06:03:50;;;;;;;17.67;9.30;;;7.80;64.80;;;;;;10050917;28;20063;-64
2021/03/03 06:08:41;;;;;;;14.48;9.13;;;7.70;65.00;;;;;;10051401;28;20572;-63
2021/03/03 06:13:32;;;;;;;16.98;7.85;;;7.80;64.80;;;;;;10049394;28;20049;-63
2021/03/03 06:18:24;;;;;;;18.55;8.55;;;7.80;65.00;;;;;;10052081;28;20443;-61
2021/03/03 06:23:20;;;;;;;13.30;7.55;;;7.80;65.30;;;;;;10052330;28;20037;-61
2021/03/03 06:28:11;;;;;;;17.52;8.48;;;7.80;65.30;;;;;;10051212;28;20033;-63
2021/03/03 06:33:05;;;;;;;18.90;8.65;;;7.80;65.30;;;;;;10051266;28;20064;-64
2021/03/03 06:37:57;;;;;;;22.27;10.73;;;7.80;65.40;;;;;;10051441;28;20400;-63
2021/03/03 06:42:47;;;;;;;14.93;9.48;;;7.80;65.30;;;;;;10052049;28;20374;-61
2021/03/03 06:47:48;;;;;;;17.98;9.85;;;7.80;65.60;;;;;;10066633;28;20510;-62
2021/03/03 06:52:43;;;;;;;20.58;9.27;;;7.80;65.90;;;;;;10051327;28;20072;-61
2021/03/03 06:57:33;;;;;;;20.75;9.07;;;7.80;65.90;;;;;;10050332;28;20037;-63
2021/03/03 07:02:31;;;;;;;15.27;8.57;;;7.90;66.00;;;;;;10050356;28;20033;-66
2021/03/03 07:07:22;;;;;;;17.80;8.88;;;8.00;65.90;;;;;;10052889;28;20078;-63
2021/03/03 07:12:13;;;;;;;19.63;10.77;;;8.00;65.60;;;;;;10058823;28;20048;-64
2021/03/03 07:17:08;;;;;;;17.77;10.10;;;8.00;65.80;;;;;;10056275;28;20048;-64
2021/03/03 07:21:59;;;;;;;19.13;9.10;;;8.00;65.80;;;;;;10056757;28;20083;-63
2021/03/03 07:26:50;;;;;;;19.50;9.25;;;8.10;65.90;;;;;;10056704;28;20517;-63
2021/03/03 07:31:41;;;;;;;16.42;9.60;;;8.20;66.00;;;;;;10054302;28;20400;-63
2021/03/03 07:36:34;;;;;;;16.67;10.55;;;8.20;66.00;;;;;;10052920;28;20033;-61
2021/03/03 07:41:25;;;;;;;18.52;9.35;;;8.20;66.30;;;;;;10055928;28;20360;-63
2021/03/03 07:46:18;;;;;;;19.08;9.57;;;8.20;66.30;;;;;;10087234;28;20116;-64
2021/03/03 07:51:09;;;;;;;15.25;9.55;;;8.30;66.10;;;;;;10087761;28;20037;-61
2021/03/03 07:56:03;;;;;;;16.85;9.82;;;8.50;65.80;;;;;;10088190;28;20025;-61
2021/03/03 08:00:54;;;;;;;20.48;9.88;;;8.60;65.70;;;;;;10090709;28;20028;-62
2021/03/03 08:05:44;;;;;;;18.13;9.35;;;8.70;65.60;;;;;;10085060;28;20029;-60
2021/03/03 08:10:39;;;;;;;15.38;8.95;;;8.70;65.40;;;;;;10087793;28;20040;-63
2021/03/03 08:15:40;;;;;;;21.45;10.63;;;8.80;65.60;;;;;;10086249;28;20407;-63
2021/03/03 08:20:31;;;;;;;19.88;9.45;;;8.90;65.40;;;;;;10085331;28;20066;-61
2021/03/03 08:25:41;;;;;;;19.00;9.38;;;9.00;65.40;;;;;;10087049;28;20051;-61
2021/03/03 08:30:32;;;;;;;19.08;9.77;;;9.10;65.20;;;;;;10081327;28;20049;-62
2021/03/03 08:35:38;;;;;;;23.58;9.60;;;9.10;64.90;;;;;;10077742;28;20033;-62
2021/03/03 08:40:29;;;;;;;;;;;9.20;65.40;;;;;;10111498;28;20057;-61
2021/03/03 08:45:20;;;;;;;21.33;10.18;;;9.20;65.30;;;;;;10086153;28;20007;-62
2021/03/03 08:50:31;;;;;;;19.30;11.20;;;9.20;64.80;;;;;;10085773;28;20039;-62
2021/03/03 08:55:32;;;;;;;23.13;11.60;;;9.20;64.70;;;;;;10083964;28;20385;-62
2021/03/03 09:00:46;;;;;;;19.92;10.25;;;9.10;65.20;;;;;;10086673;28;20458;-61
2021/03/03 09:05:37;;;;;;;21.65;9.90;;;9.10;65.10;;;;;;10094193;28;20050;-63
2021/03/03 09:10:31;;;;;;;19.20;10.65;;;9.30;64.50;;;;;;10077452;28;20037;-62
2021/03/03 09:15:21;;;;;;;21.13;9.95;;;9.30;64.20;;;;;;10077007;28;20528;-64
2021/03/03 09:20:21;;;;;;;20.50;9.93;;;9.40;64.00;;;;;;10079017;28;20029;-63
2021/03/03 09:25:16;;;;;;;17.42;10.07;;;9.60;63.70;;;;;;10078708;28;20120;-63
2021/03/03 09:30:08;;;;;;;22.27;10.48;;;9.80;63.20;;;;;;10076970;28;20048;-64
2021/03/03 09:35:02;;;;;;;19.27;10.40;;;9.90;63.10;;;;;;10084076;28;20098;-63
2021/03/03 09:39:55;;;;;;;22.17;11.45;;;10.10;62.80;;;;;;10079026;28;20036;-66
2021/03/03 09:44:51;;;;;;;22.13;10.18;;;10.20;62.40;;;;;;10083978;28;20087;-62
2021/03/03 09:49:44;;;;;;;19.15;11.73;;;10.30;62.10;;;;;;10074667;28;20045;-64
2021/03/03 09:54:37;;;;;;;17.80;10.35;;;10.30;62.10;;;;;;10082686;28;20545;-61
2021/03/03 09:59:31;;;;;;;22.00;10.68;;;10.50;61.80;;;;;;10077125;28;20033;-61
2021/03/03 10:04:22;;;;;;;19.02;10.95;;;10.70;61.30;;;;;;10081659;28;20017;-62
2021/03/03 10:09:13;;;;;;;15.80;9.98;;;10.80;61.00;;;;;;10078963;28;20679;-65
2021/03/03 10:14:08;;;;;;;19.35;10.02;;;10.80;61.00;;;;;;10081095;28;20080;-64
2021/03/03 10:19:08;;;;;;;20.85;12.68;;;10.90;60.70;;;;;;10078739;28;20038;-64
2021/03/03 10:23:58;;;;;;;21.13;10.93;;;11.00;60.70;;;;;;10079881;28;20036;-66
2021/03/03 10:28:53;;;;;;;27.48;12.85;;;11.10;60.40;;;;;;10077337;28;20025;-62
2021/03/03 10:33:43;;;;;;;20.95;11.50;;;11.20;60.50;;;;;;10078370;28;20542;-60
2021/03/03 10:38:43;;;;;;;18.88;10.75;;;11.20;59.90;;;;;;10073202;28;20032;-65
2021/03/03 10:43:33;;;;;;;25.17;11.93;;;11.30;60.10;;;;;;10083663;28;20032;-61
2021/03/03 10:48:31;;;;;;;21.33;11.05;;;11.30;59.80;;;;;;10088809;28;20028;-62
2021/03/03 10:53:22;;;;;;;26.05;11.43;;;11.40;59.70;;;;;;10085197;28;20506;-61
2021/03/03 10:58:21;;;;;;;17.63;10.52;;;11.70;59.00;;;;;;10081689;28;20272;-61
2021/03/03 11:03:11;;;;;;;19.48;10.85;;;11.90;58.70;;;;;;10084906;28;20021;-63
2021/03/03 11:08:02;;;;;;;21.52;11.27;;;12.00;58.70;;;;;;10079918;28;20068;-62
2021/03/03 11:12:53;;;;;;;17.65;11.48;;;12.30;58.40;;;;;;10079443;28;20052;-62
2021/03/03 11:17:44;;;;;;;21.60;11.35;;;12.40;57.80;;;;;;10042800;28;20488;-61
2021/03/03 11:22:34;;;;;;;17.67;10.23;;;12.50;57.90;;;;;;10041240;28;20033;-64
2021/03/03 11:27:26;;;;;;;24.50;12.13;;;12.60;58.00;;;;;;10026400;28;20029;-65
2021/03/03 11:37:17;;;;;;;21.20;11.40;;;12.80;57.40;;;;;;6035294;23;20207;-72
2021/03/03 11:42:09;;;;;;;20.05;10.82;;;13.00;57.20;;;;;;10068877;28;20592;-68
2021/03/03 11:47:02;;;;;;;21.45;11.23;;;13.20;56.90;;;;;;10057969;28;20032;-70
2021/03/03 11:51:53;;;;;;;25.20;12.27;;;13.30;56.60;;;;;;10051846;28;20055;-69
2021/03/03 11:56:46;;;;;;;19.13;11.70;;;13.40;56.50;;;;;;10044437;28;20032;-71
2021/03/03 12:01:36;;;;;;;19.50;10.90;;;13.60;56.30;;;;;;10034092;28;20036;-70
2021/03/03 12:06:27;;;;;;;21.05;9.23;;;13.70;56.10;;;;;;10062311;28;21214;-70
2021/03/03 12:11:18;;;;;;;21.10;11.13;;;13.70;55.70;;;;;;10041743;28;20641;-67
2021/03/03 12:16:09;;;;;;;23.42;10.70;;;13.60;55.70;;;;;;10051994;28;20506;-70
2021/03/03 12:21:00;;;;;;;21.48;9.75;;;13.80;55.30;;;;;;10060456;28;20521;-71
2021/03/03 12:25:51;;;;;;;18.33;10.55;;;13.90;55.10;;;;;;10059721;28;20123;-72
2021/03/03 12:30:42;;;;;;;20.42;11.25;;;14.00;54.80;;;;;;10060061;28;20045;-75
2021/03/03 12:35:32;;;;;;;18.98;9.98;;;14.10;55.10;;;;;;10059551;28;20874;-75
2021/03/03 12:40:23;;;;;;;20.05;10.30;;;14.20;54.10;;;;;;10059453;28;20033;-74
2021/03/03 12:45:14;;;;;;;17.27;9.27;;;14.40;54.00;;;;;;10060332;28;20060;-75
2021/03/03 12:50:06;;;;;;;18.30;9.88;;;14.40;53.40;;;;;;10062400;28;20180;-74
2021/03/03 12:54:56;;;;;;;19.20;11.07;;;14.60;53.10;;;;;;10062111;28;20817;-74
2021/03/03 12:59:48;;;;;;;20.63;10.95;;;14.70;52.90;;;;;;10063817;28;20059;-74
2021/03/03 13:04:38;;;;;;;21.95;10.05;;;14.70;52.60;;;;;;10059849;28;20029;-72
2021/03/03 13:09:29;;;;;;;18.13;9.15;;;14.70;52.30;;;;;;10048491;28;20033;-69
2021/03/03 13:14:19;;;;;;;24.63;10.57;;;14.90;52.00;;;;;;10039565;28;20036;-68
2021/03/03 13:19:10;;;;;;;24.00;11.13;;;15.00;51.60;;;;;;10049323;28;20044;-69
2021/03/03 13:24:00;;;;;;;16.23;9.40;;;15.10;51.60;;;;;;10047826;28;20566;-67
2021/03/03 13:28:51;;;;;;;20.63;10.70;;;15.10;51.30;;;;;;10049488;28;20052;-73
2021/03/03 13:33:42;;;;;;;20.80;10.52;;;15.20;51.00;;;;;;10048968;28;20047;-70
2021/03/03 13:38:32;;;;;;;17.88;10.02;;;15.10;51.10;;;;;;10048819;28;20052;-74
2021/03/03 13:43:23;;;;;;;19.83;9.63;;;15.30;50.90;;;;;;10048308;28;20037;-78
2021/03/03 13:48:26;;;;;;;15.25;8.68;;;15.30;50.60;;;;;;10048443;28;20035;-69
2021/03/03 13:53:17;;;;;;;20.65;9.60;;;15.30;50.30;;;;;;10029528;28;20762;-70
2021/03/03 13:58:07;;;;;;;16.85;8.88;;;15.20;50.30;;;;;;10043801;28;20332;-70
2021/03/03 14:02:59;;;;;;;16.65;9.20;;;15.10;50.10;;;;;;10046091;28;20270;-72
2021/03/03 14:07:50;;;;;;;19.85;9.45;;;15.00;49.90;;;;;;10045285;28;20167;-79
2021/03/03 14:12:40;;;;;;;22.67;10.20;;;15.00;49.80;;;;;;10054571;28;20131;-73
2021/03/03 14:17:31;;;;;;;19.73;9.88;;;15.00;49.80;;;;;;10045698;28;20071;-74
2021/03/03 14:22:23;;;;;;;15.68;9.00;;;14.90;49.60;;;;;;10038349;28;20036;-71
2021/03/03 14:27:14;;;;;;;17.90;9.35;;;14.80;49.70;;;;;;10057072;28;20079;-76
2021/03/03 14:32:05;;;;;;;26.98;10.18;;;14.80;49.50;;;;;;10065680;28;20139;-72
2021/03/03 14:36:56;;;;;;;16.45;9.15;;;14.70;49.50;;;;;;10064649;28;20502;-68
2021/03/03 14:41:47;;;;;;;21.83;10.60;;;14.70;49.40;;;;;;10100815;28;20039;-72
2021/03/03 14:46:38;;;;;;;17.88;10.00;;;14.70;49.40;;;;;;10103804;28;20516;-67
2021/03/03 14:51:29;;;;;;;19.38;9.95;;;14.60;49.20;;;;;;10103208;28;20513;-66
2021/03/03 14:56:20;;;;;;;20.92;9.75;;;14.60;49.20;;;;;;10105310;28;20059;-67
2021/03/03 15:01:11;;;;;;;15.40;8.55;;;14.60;49.10;;;;;;10089720;28;20038;-67
2021/03/03 15:06:02;;;;;;;22.30;10.63;;;14.50;49.30;;;;;;10079566;28;20060;-75
2021/03/03 15:10:59;;;;;;;21.42;9.75;;;14.40;50.00;;;;;;10099282;28;20405;-75
2021/03/03 15:15:52;;;;;;;20.70;9.32;;;14.40;49.30;;;;;;10118944;28;20050;-74
2021/03/03 15:20:43;;;;;;;18.05;9.75;;;14.30;49.40;;;;;;10117863;28;20171;-73
2021/03/03 15:25:34;;;;;;;22.50;10.30;;;14.10;49.70;;;;;;10121895;28;20032;-76
2021/03/03 15:30:25;;;;;;;23.02;10.93;;;14.10;49.60;;;;;;10131826;28;20032;-72
2021/03/03 15:35:16;;;;;;;20.33;9.82;;;14.10;49.80;;;;;;10121531;28;20025;-73
2021/03/03 15:40:07;;;;;;;20.77;8.95;;;14.00;49.80;;;;;;10126614;28;20079;-72
2021/03/03 15:44:59;;;;;;;20.95;10.80;;;13.90;49.90;;;;;;10126390;28;20035;-74
2021/03/03 15:49:49;;;;;;;20.10;10.52;;;13.90;50.00;;;;;;10117202;28;20044;-76
2021/03/03 15:54:40;;;;;;;24.40;11.25;;;13.90;50.00;;;;;;10104258;28;20410;-76
2021/03/03 15:59:31;;;;;;;18.35;10.43;;;13.80;50.00;;;;;;10122092;28;20102;-76
2021/03/03 16:04:21;;;;;;;21.00;10.88;;;13.80;50.20;;;;;;10108764;28;20017;-78
2021/03/03 16:09:12;;;;;;;23.50;10.32;;;13.70;50.20;;;;;;10124185;28;20055;-76
2021/03/03 16:14:03;;;;;;;23.23;11.13;;;13.70;50.40;;;;;;10105491;28;20029;-77
2021/03/03 16:18:54;;;;;;;19.27;9.77;;;13.60;50.50;;;;;;10124114;28;20053;-77
2021/03/03 16:23:45;;;;;;;24.73;10.48;;;13.60;50.60;;;;;;10122859;28;20021;-77
2021/03/03 16:28:36;;;;;;;22.52;10.15;;;13.50;50.70;;;;;;10122350;28;20025;-77
2021/03/03 16:33:26;;;;;;;24.15;11.15;;;13.50;50.70;;;;;;10122110;28;20032;-76
2021/03/03 16:38:26;;;;;;;20.58;10.93;;;13.40;50.80;;;;;;10123096;28;20044;-78
2021/03/03 16:43:16;;;;;;;16.45;9.40;;;13.40;51.00;;;;;;10104945;28;20120;-77
2021/03/03 16:48:07;;;;;;;21.73;11.13;;;13.30;51.00;;;;;;10122247;28;20148;-74
2021/03/03 16:53:01;;;;;;;19.45;10.98;;;13.30;51.10;;;;;;10123878;28;20493;-78
2021/03/03 16:57:52;;;;;;;21.38;10.45;;;13.30;51.20;;;;;;10123578;28;20075;-74
2021/03/03 17:02:43;;;;;;;18.90;10.30;;;13.20;51.20;;;;;;10054103;28;20372;-72
2021/03/03 17:07:33;;;;;;;20.85;10.35;;;13.20;51.30;;;;;;10090629;28;20487;-75
2021/03/03 17:12:24;;;;;;;24.05;11.30;;;13.20;52.00;;;;;;10097713;28;20167;-75
2021/03/03 17:17:15;;;;;;;22.48;10.93;;;13.20;51.40;;;;;;10081250;28;20058;-72
2021/03/03 17:22:06;;;;;;;22.30;12.05;;;13.20;51.60;;;;;;10095094;28;20044;-74
2021/03/03 17:26:57;;;;;;;28.25;10.82;;;13.10;51.70;;;;;;10089586;28;20128;-79
2021/03/03 17:31:49;;;;;;;21.25;10.00;;;13.10;51.70;;;;;;10076497;28;20044;-76
2021/03/03 17:36:40;;;;;;;27.70;11.05;;;13.10;51.80;;;;;;10090232;28;20059;-75
2021/03/03 17:41:30;;;;;;;22.15;11.23;;;13.10;51.90;;;;;;10072534;28;20036;-74
2021/03/03 17:46:27;;;;;;;24.10;10.93;;;13.10;52.00;;;;;;10091445;28;20028;-78
2021/03/03 17:51:18;;;;;;;26.67;11.88;;;13.00;52.10;;;;;;10076663;28;20048;-75
2021/03/03 17:56:09;;;;;;;21.65;10.75;;;13.00;52.10;;;;;;10092494;28;20036;-75
2021/03/03 18:01:00;;;;;;;28.58;11.35;;;13.00;52.30;;;;;;10070488;28;20041;-73
2021/03/03 18:05:50;;;;;;;26.45;13.43;;;13.00;52.30;;;;;;10090087;28;20112;-76
2021/03/03 18:10:41;;;;;;;27.00;11.60;;;12.90;52.40;;;;;;10092581;28;20473;-74
2021/03/03 18:15:32;;;;;;;25.10;10.90;;;12.90;52.50;;;;;;10089979;28;20032;-72
2021/03/03 18:20:23;;;;;;;28.70;12.38;;;12.90;52.70;;;;;;10026228;28;20183;-68
2021/03/03 18:25:14;;;;;;;25.83;12.85;;;12.90;52.70;;;;;;10051027;28;20045;-72
2021/03/03 18:30:07;;;;;;;24.70;12.60;;;12.90;52.80;;;;;;10040592;28;20378;-70
2021/03/03 18:34:58;;;;;;;23.80;13.95;;;12.80;53.00;;;;;;10053722;28;20028;-69
2021/03/03 18:39:49;;;;;;;26.35;13.48;;;12.80;53.20;;;;;;10055246;28;20051;-72
2021/03/03 18:44:46;;;;;;;23.15;12.88;;;12.70;53.30;;;;;;10056810;28;20559;-69
2021/03/03 18:49:37;;;;;;;24.25;13.52;;;12.60;53.60;;;;;;10056146;28;20403;-67
2021/03/03 18:54:27;;;;;;;20.95;11.80;;;12.60;53.60;;;;;;10057117;28;20215;-68
2021/03/03 18:59:18;;;;;;;28.20;11.90;;;12.60;53.70;;;;;;10065308;28;20029;-71
2021/03/03 19:04:12;;;;;;;25.38;13.35;;;12.60;53.80;;;;;;10062146;28;20535;-70
2021/03/03 19:09:03;;;;;;;23.07;12.53;;;12.60;53.80;;;;;;10064287;28;20565;-69
2021/03/03 19:13:54;;;;;;;26.63;12.63;;;12.60;53.90;;;;;;10045969;28;20056;-72
2021/03/03 19:18:44;;;;;;;22.25;12.15;;;12.60;54.00;;;;;;10062228;28;20776;-69
2021/03/03 19:23:35;;;;;;;25.65;11.88;;;12.60;54.20;;;;;;10046569;28;20094;-68
2021/03/03 19:28:26;;;;;;;25.60;12.98;;;12.60;54.20;;;;;;10042455;28;20574;-70
2021/03/03 19:33:17;;;;;;;29.45;12.43;;;12.50;54.20;;;;;;10039955;28;20924;-72
2021/03/03 19:38:08;;;;;;;24.98;11.95;;;12.50;54.30;;;;;;10037132;28;20048;-75
2021/03/03 19:43:01;;;;;;;24.70;12.77;;;12.50;54.50;;;;;;10037511;28;20037;-71
2021/03/03 19:47:52;;;;;;;24.85;12.18;;;12.50;54.70;;;;;;10057063;28;20060;-78
2021/03/03 19:52:43;;;;;;;33.35;14.18;;;12.40;54.80;;;;;;10059004;28;20418;-77
2021/03/03 19:57:34;;;;;;;28.70;13.75;;;12.40;54.90;;;;;;10060295;28;20033;-64
2021/03/03 20:02:25;;;;;;;26.75;12.35;;;12.40;55.20;;;;;;10056345;28;20029;-67
2021/03/03 20:07:16;;;;;;;25.65;12.65;;;12.40;55.30;;;;;;10057554;28;20052;-67
2021/03/03 20:12:07;;;;;;;32.45;13.90;;;12.40;55.30;;;;;;10057465;28;20048;-67
2021/03/03 20:16:57;;;;;;;22.40;11.88;;;12.40;55.30;;;;;;10038707;28;20511;-68
2021/03/03 20:21:48;;;;;;;24.80;11.40;;;12.30;55.50;;;;;;10056175;28;20025;-67
2021/03/03 20:26:39;;;;;;;21.33;10.85;;;12.30;56.10;;;;;;10057747;28;20179;-68
2021/03/03 20:31:30;;;;;;;28.85;11.90;;;12.30;55.80;;;;;;10056078;28;20068;-67
2021/03/03 20:36:20;;;;;;;26.23;11.88;;;12.30;55.80;;;;;;10023358;28;20116;-67
2021/03/03 20:41:11;;;;;;;24.00;12.60;;;12.20;55.80;;;;;;10017569;28;20633;-69
2021/03/03 20:46:03;;;;;;;25.95;11.82;;;12.20;56.00;;;;;;10017363;28;20094;-69
2021/03/03 20:50:54;;;;;;;30.05;12.57;;;12.10;56.00;;;;;;10016278;28;20033;-69
2021/03/03 20:55:44;;;;;;;24.58;13.07;;;12.10;56.10;;;;;;10017676;28;20679;-69
2021/03/03 21:00:39;;;;;;;23.83;13.52;;;12.10;56.20;;;;;;10016691;28;20024;-70
2021/03/03 21:05:29;;;;;;;27.52;12.52;;;12.00;56.30;;;;;;10016709;28;20044;-69
2021/03/03 21:10:21;;;;;;;26.38;12.73;;;12.00;56.20;;;;;;10019176;28;20051;-69
2021/03/03 21:15:12;;;;;;;27.85;13.98;;;12.00;56.50;;;;;;10019820;28;20041;-72
2021/03/03 21:20:08;;;;;;;27.77;14.70;;;11.90;56.50;;;;;;10019024;28;20628;-69
2021/03/03 21:24:58;;;;;;;;;;;11.90;56.60;;;;;;10018008;28;20040;-70
2021/03/03 21:29:49;;;;;;;23.55;12.77;;;11.90;56.70;;;;;;10015488;28;19921;-71
2021/03/03 21:34:39;;;;;;;24.35;13.57;;;11.80;56.50;;;;;;10021465;28;20037;-72
2021/03/03 21:39:30;;;;;;;25.02;13.15;;;11.80;56.60;;;;;;10015588;28;20064;-65
2021/03/03 21:44:21;;;;;;;24.10;13.95;;;11.80;56.50;;;;;;10014927;28;20483;-66
2021/03/03 21:49:12;;;;;;;25.05;12.52;;;11.80;56.50;;;;;;10015855;28;20289;-67
2021/03/03 21:54:03;;;;;;;26.75;13.60;;;11.80;56.70;;;;;;10018224;28;20459;-67
2021/03/03 21:58:54;;;;;;;26.98;13.40;;;11.70;56.60;;;;;;10004920;28;20052;-67
2021/03/03 22:03:45;;;;;;;26.63;12.75;;;11.70;56.70;;;;;;10019874;28;20022;-66
2021/03/03 22:08:35;;;;;;;21.63;13.07;;;11.60;56.50;;;;;;9999741;28;20613;-68
2021/03/03 22:13:30;;;;;;;24.60;12.90;;;11.60;56.50;;;;;;10012017;28;20045;-69
2021/03/03 22:18:20;;;;;;;24.67;12.52;;;11.60;56.40;;;;;;10013638;28;20128;-64
2021/03/03 22:23:11;;;;;;;24.65;11.73;;;11.60;56.50;;;;;;10013249;28;20029;-65
2021/03/03 22:28:02;;;;;;;21.30;11.45;;;11.50;56.40;;;;;;10026359;28;20079;-70
2021/03/03 22:32:53;;;;;;;27.40;11.63;;;11.40;56.40;;;;;;9995795;28;20438;-69
2021/03/03 22:37:45;;;;;;;26.55;11.90;;;11.40;56.60;;;;;;10014335;28;20554;-70
2021/03/03 22:42:36;;;;;;;25.00;12.32;;;11.30;56.60;;;;;;10021434;28;20513;-68
2021/03/03 22:47:27;;;;;;;22.00;11.13;;;11.40;56.50;;;;;;10022608;28;20029;-69
2021/03/03 22:52:17;;;;;;;24.73;12.30;;;11.30;56.60;;;;;;10020781;28;20041;-70
2021/03/03 22:57:09;;;;;;;25.25;11.73;;;11.30;56.60;;;;;;10022784;28;20395;-69
2021/03/03 23:01:59;;;;;;;24.83;12.15;;;11.20;56.60;;;;;;10017769;28;20484;-70
2021/03/03 23:06:51;;;;;;;19.98;10.93;;;11.20;56.50;;;;;;10022248;28;20050;-70
2021/03/03 23:11:41;;;;;;;29.23;13.38;;;11.20;56.50;;;;;;10021724;28;20096;-70
2021/03/03 23:16:33;;;;;;;25.67;12.50;;;11.20;56.40;;;;;;10020174;28;20483;-68
2021/03/03 23:21:24;;;;;;;26.05;11.88;;;11.20;56.50;;;;;;10021954;28;20506;-69
2021/03/03 23:26:15;;;;;;;24.17;12.35;;;11.20;56.50;;;;;;10020880;28;20053;-69
2021/03/03 23:31:07;;;;;;;20.20;12.07;;;11.20;56.50;;;;;;10020731;28;20053;-69
2021/03/03 23:35:58;;;;;;;21.23;11.25;;;11.30;56.50;;;;;;10003412;28;20522;-71
2021/03/03 23:40:49;;;;;;;28.80;13.10;;;11.20;56.60;;;;;;10019045;28;20562;-69
2021/03/03 23:45:40;;;;;;;25.67;13.15;;;11.20;56.50;;;;;;10021581;28;20057;-69
2021/03/03 23:50:34;;;;;;;27.00;11.88;;;11.10;56.60;;;;;;10019613;28;20056;-70
2021/03/03 23:55:25;;;;;;;18.88;11.88;;;11.10;56.70;;;;;;10021240;28;20037;-69
